sensor_id;sensor_type;location;lat;lon;timestamp;pressure;altitude;pressure_sealevel;temperature;humidity
52693;BME280;68218;51.012;-1.648;2023-03-19T00:01:44;100126.19;;;9.03;93.58
52693;BME280;68218;51.012;-1.648;2023-03-19T00:04:09;100133.44;;;9.02;92.59
52693;BME280;68218;51.012;-1.648;2023-03-19T00:06:35;100141.16;;;8.93;92.16
52693;BME280;68218;51.012;-1.648;2023-03-19T00:09:01;100146.31;;;8.95;91.75
52693;BME280;68218;51.012;-1.648;2023-03-19T00:11:26;100148.38;;;8.88;90.74
52693;BME280;68218;51.012;-1.648;2023-03-19T00:13:51;100155.31;;;8.84;91.36
52693;BME280;68218;51.012;-1.648;2023-03-19T00:16:17;100138.81;;;8.75;90.68
52693;BME280;68218;51.012;-1.648;2023-03-19T00:18:42;100134.19;;;8.70;89.02
52693;BME280;68218;51.012;-1.648;2023-03-19T00:21:08;100144.34;;;8.63;88.33
52693;BME280;68218;51.012;-1.648;2023-03-19T00:23:34;100154.97;;;8.53;89.08
52693;BME280;68218;51.012;-1.648;2023-03-19T00:26:00;100142.88;;;8.50;89.02
52693;BME280;68218;51.012;-1.648;2023-03-19T00:28:25;100150.53;;;8.41;89.82
52693;BME280;68218;51.012;-1.648;2023-03-19T00:30:51;100156.88;;;8.35;89.65
52693;BME280;68218;51.012;-1.648;2023-03-19T00:33:16;100156.34;;;8.33;89.63
52693;BME280;68218;51.012;-1.648;2023-03-19T00:35:42;100152.38;;;8.41;89.78
52693;BME280;68218;51.012;-1.648;2023-03-19T00:38:07;100155.56;;;8.38;88.92
52693;BME280;68218;51.012;-1.648;2023-03-19T00:40:32;100159.63;;;8.40;89.70
52693;BME280;68218;51.012;-1.648;2023-03-19T00:42:58;100170.06;;;8.37;88.42
52693;BME280;68218;51.012;-1.648;2023-03-19T00:45:23;100175.38;;;8.32;88.49
52693;BME280;68218;51.012;-1.648;2023-03-19T00:47:48;100185.06;;;8.33;89.75
52693;BME280;68218;51.012;-1.648;2023-03-19T00:50:14;100202.81;;;8.34;88.08
52693;BME280;68218;51.012;-1.648;2023-03-19T00:52:39;100208.19;;;8.34;88.80
52693;BME280;68218;51.012;-1.648;2023-03-19T00:55:05;100204.13;;;8.31;87.47
52693;BME280;68218;51.012;-1.648;2023-03-19T00:57:31;100208.91;;;8.29;88.06
52693;BME280;68218;51.012;-1.648;2023-03-19T00:59:56;100213.31;;;8.35;88.11
52693;BME280;68218;51.012;-1.648;2023-03-19T01:02:21;100216.41;;;8.44;88.17
52693;BME280;68218;51.012;-1.648;2023-03-19T01:04:47;100212.69;;;8.28;87.82
52693;BME280;68218;51.012;-1.648;2023-03-19T01:07:13;100222.22;;;8.19;88.00
52693;BME280;68218;51.012;-1.648;2023-03-19T01:09:38;100230.44;;;8.12;88.60
52693;BME280;68218;51.012;-1.648;2023-03-19T01:12:05;100235.78;;;7.90;88.83
52693;BME280;68218;51.012;-1.648;2023-03-19T01:14:31;100233.63;;;7.58;89.53
52693;BME280;68218;51.012;-1.648;2023-03-19T01:16:57;100241.81;;;7.35;88.27
52693;BME280;68218;51.012;-1.648;2023-03-19T01:19:22;100243.34;;;7.30;89.15
52693;BME280;68218;51.012;-1.648;2023-03-19T01:21:48;100254.59;;;7.16;87.90
52693;BME280;68218;51.012;-1.648;2023-03-19T01:24:13;100262.41;;;7.17;88.14
52693;BME280;68218;51.012;-1.648;2023-03-19T01:26:39;100265.66;;;7.19;87.81
52693;BME280;68218;51.012;-1.648;2023-03-19T01:29:05;100267.63;;;7.24;87.86
52693;BME280;68218;51.012;-1.648;2023-03-19T01:31:30;100269.00;;;7.26;88.96
52693;BME280;68218;51.012;-1.648;2023-03-19T01:33:56;100270.56;;;7.22;88.55
52693;BME280;68218;51.012;-1.648;2023-03-19T01:36:21;100273.81;;;7.24;87.66
52693;BME280;68218;51.012;-1.648;2023-03-19T01:38:46;100283.72;;;7.24;85.21
52693;BME280;68218;51.012;-1.648;2023-03-19T01:41:12;100284.06;;;7.27;83.92
52693;BME280;68218;51.012;-1.648;2023-03-19T01:43:37;100290.56;;;7.31;84.17
52693;BME280;68218;51.012;-1.648;2023-03-19T01:46:20;100290.56;;;7.31;84.08
52693;BME280;68218;51.012;-1.648;2023-03-19T01:48:52;100295.69;;;7.33;83.28
52693;BME280;68218;51.012;-1.648;2023-03-19T01:51:19;100300.25;;;7.32;84.33
52693;BME280;68218;51.012;-1.648;2023-03-19T01:53:46;100309.16;;;7.21;84.50
52693;BME280;68218;51.012;-1.648;2023-03-19T01:56:14;100301.47;;;7.25;87.19
52693;BME280;68218;51.012;-1.648;2023-03-19T01:58:40;100293.06;;;7.21;85.82
52693;BME280;68218;51.012;-1.648;2023-03-19T02:01:07;100314.28;;;7.23;86.41
52693;BME280;68218;51.012;-1.648;2023-03-19T02:03:32;100323.88;;;7.19;86.40
52693;BME280;68218;51.012;-1.648;2023-03-19T02:05:58;100337.41;;;7.12;86.42
52693;BME280;68218;51.012;-1.648;2023-03-19T02:08:24;100315.03;;;7.06;89.73
52693;BME280;68218;51.012;-1.648;2023-03-19T02:10:50;100319.47;;;7.01;89.98
52693;BME280;68218;51.012;-1.648;2023-03-19T02:13:17;100318.09;;;6.98;90.13
52693;BME280;68218;51.012;-1.648;2023-03-19T02:15:42;100311.81;;;6.92;90.40
52693;BME280;68218;51.012;-1.648;2023-03-19T02:18:08;100303.38;;;7.01;90.54
52693;BME280;68218;51.012;-1.648;2023-03-19T02:20:35;100297.91;;;6.96;90.24
52693;BME280;68218;51.012;-1.648;2023-03-19T02:23:23;100300.69;;;7.01;89.29
52693;BME280;68218;51.012;-1.648;2023-03-19T02:28:19;100306.31;;;6.99;88.28
52693;BME280;68218;51.012;-1.648;2023-03-19T02:30:46;100301.19;;;6.98;88.79
52693;BME280;68218;51.012;-1.648;2023-03-19T02:33:13;100297.34;;;6.93;88.69
52693;BME280;68218;51.012;-1.648;2023-03-19T02:35:39;100298.88;;;6.89;89.71
52693;BME280;68218;51.012;-1.648;2023-03-19T02:38:04;100299.00;;;6.83;88.78
52693;BME280;68218;51.012;-1.648;2023-03-19T02:40:31;100298.91;;;6.78;89.73
52693;BME280;68218;51.012;-1.648;2023-03-19T02:42:58;100298.44;;;6.69;90.46
52693;BME280;68218;51.012;-1.648;2023-03-19T02:45:27;100296.69;;;6.63;90.58
52693;BME280;68218;51.012;-1.648;2023-03-19T02:47:52;100303.69;;;6.52;90.37
52693;BME280;68218;51.012;-1.648;2023-03-19T02:50:17;100301.81;;;6.41;90.58
52693;BME280;68218;51.012;-1.648;2023-03-19T02:52:43;100297.41;;;6.34;90.90
52693;BME280;68218;51.012;-1.648;2023-03-19T02:55:08;100291.13;;;6.29;91.13
52693;BME280;68218;51.012;-1.648;2023-03-19T02:57:33;100291.38;;;6.27;91.22
52693;BME280;68218;51.012;-1.648;2023-03-19T02:59:59;100293.94;;;6.22;91.34
52693;BME280;68218;51.012;-1.648;2023-03-19T03:02:24;100289.25;;;6.17;91.65
52693;BME280;68218;51.012;-1.648;2023-03-19T03:04:50;100289.81;;;6.08;92.25
52693;BME280;68218;51.012;-1.648;2023-03-19T03:07:16;100295.06;;;6.03;92.73
52693;BME280;68218;51.012;-1.648;2023-03-19T03:09:42;100300.06;;;5.99;92.95
52693;BME280;68218;51.012;-1.648;2023-03-19T03:12:07;100311.94;;;6.03;92.74
52693;BME280;68218;51.012;-1.648;2023-03-19T03:14:32;100322.50;;;5.98;93.43
52693;BME280;68218;51.012;-1.648;2023-03-19T03:16:59;100324.97;;;5.99;93.43
52693;BME280;68218;51.012;-1.648;2023-03-19T03:19:24;100323.41;;;5.92;93.20
52693;BME280;68218;51.012;-1.648;2023-03-19T03:21:49;100336.44;;;5.88;92.18
52693;BME280;68218;51.012;-1.648;2023-03-19T03:24:15;100330.38;;;5.93;91.77
52693;BME280;68218;51.012;-1.648;2023-03-19T03:26:40;100331.53;;;5.85;90.90
52693;BME280;68218;51.012;-1.648;2023-03-19T03:29:06;100338.63;;;5.79;90.62
52693;BME280;68218;51.012;-1.648;2023-03-19T03:31:32;100339.19;;;5.70;88.43
52693;BME280;68218;51.012;-1.648;2023-03-19T03:33:58;100348.22;;;5.69;89.67
52693;BME280;68218;51.012;-1.648;2023-03-19T03:36:24;100352.28;;;5.59;90.18
52693;BME280;68218;51.012;-1.648;2023-03-19T03:38:49;100352.50;;;5.58;89.87
52693;BME280;68218;51.012;-1.648;2023-03-19T03:41:15;100355.94;;;5.47;88.59
52693;BME280;68218;51.012;-1.648;2023-03-19T03:43:40;100370.94;;;5.48;89.76
52693;BME280;68218;51.012;-1.648;2023-03-19T03:46:05;100370.09;;;5.35;90.40
52693;BME280;68218;51.012;-1.648;2023-03-19T03:48:32;100372.16;;;5.33;90.51
52693;BME280;68218;51.012;-1.648;2023-03-19T03:50:58;100375.50;;;5.29;90.45
52693;BME280;68218;51.012;-1.648;2023-03-19T03:53:23;100372.69;;;5.23;89.89
52693;BME280;68218;51.012;-1.648;2023-03-19T03:55:49;100362.88;;;5.17;90.17
52693;BME280;68218;51.012;-1.648;2023-03-19T03:58:14;100379.16;;;5.16;90.33
52693;BME280;68218;51.012;-1.648;2023-03-19T04:00:39;100383.97;;;5.07;90.22
52693;BME280;68218;51.012;-1.648;2023-03-19T04:03:05;100390.16;;;5.07;90.33
52693;BME280;68218;51.012;-1.648;2023-03-19T04:05:30;100392.66;;;5.02;90.58
52693;BME280;68218;51.012;-1.648;2023-03-19T04:07:56;100403.22;;;4.97;90.53
52693;BME280;68218;51.012;-1.648;2023-03-19T04:10:22;100405.72;;;4.92;90.41
52693;BME280;68218;51.012;-1.648;2023-03-19T04:12:48;100406.97;;;4.90;90.66
52693;BME280;68218;51.012;-1.648;2023-03-19T04:15:13;100413.16;;;4.90;90.78
52693;BME280;68218;51.012;-1.648;2023-03-19T04:17:39;100409.28;;;4.86;90.30
52693;BME280;68218;51.012;-1.648;2023-03-19T04:20:05;100410.75;;;4.82;91.21
52693;BME280;68218;51.012;-1.648;2023-03-19T04:22:31;100413.50;;;4.75;90.57
52693;BME280;68218;51.012;-1.648;2023-03-19T04:24:57;100416.38;;;4.74;90.82
52693;BME280;68218;51.012;-1.648;2023-03-19T04:27:22;100418.47;;;4.72;90.53
52693;BME280;68218;51.012;-1.648;2023-03-19T04:29:48;100426.03;;;4.75;90.49
52693;BME280;68218;51.012;-1.648;2023-03-19T04:32:13;100431.22;;;4.69;90.19
52693;BME280;68218;51.012;-1.648;2023-03-19T04:34:39;100432.47;;;4.67;90.32
52693;BME280;68218;51.012;-1.648;2023-03-19T04:37:05;100424.50;;;4.60;89.93
52693;BME280;68218;51.012;-1.648;2023-03-19T04:39:31;100434.53;;;4.65;90.07
52693;BME280;68218;51.012;-1.648;2023-03-19T04:41:57;100442.78;;;4.63;90.16
52693;BME280;68218;51.012;-1.648;2023-03-19T04:44:22;100446.09;;;4.59;90.01
52693;BME280;68218;51.012;-1.648;2023-03-19T04:46:48;100450.88;;;4.50;89.68
52693;BME280;68218;51.012;-1.648;2023-03-19T04:49:13;100457.03;;;4.50;90.62
52693;BME280;68218;51.012;-1.648;2023-03-19T04:51:39;100465.94;;;4.44;90.03
52693;BME280;68218;51.012;-1.648;2023-03-19T04:54:06;100466.13;;;4.43;89.65
52693;BME280;68218;51.012;-1.648;2023-03-19T04:56:31;100461.66;;;4.37;90.24
52693;BME280;68218;51.012;-1.648;2023-03-19T04:58:56;100461.88;;;4.35;90.04
52693;BME280;68218;51.012;-1.648;2023-03-19T05:01:22;100466.41;;;4.35;90.15
52693;BME280;68218;51.012;-1.648;2023-03-19T05:03:47;100469.88;;;4.35;89.33
52693;BME280;68218;51.012;-1.648;2023-03-19T05:06:13;100468.22;;;4.41;89.10
52693;BME280;68218;51.012;-1.648;2023-03-19T05:08:38;100473.72;;;4.46;88.75
52693;BME280;68218;51.012;-1.648;2023-03-19T05:11:03;100474.91;;;4.50;88.76
52693;BME280;68218;51.012;-1.648;2023-03-19T05:13:29;100472.66;;;4.47;89.89
52693;BME280;68218;51.012;-1.648;2023-03-19T05:15:54;100487.25;;;4.51;89.53
52693;BME280;68218;51.012;-1.648;2023-03-19T05:18:20;100487.88;;;4.46;89.71
52693;BME280;68218;51.012;-1.648;2023-03-19T05:20:46;100490.81;;;4.38;90.48
52693;BME280;68218;51.012;-1.648;2023-03-19T05:23:12;100493.09;;;4.35;90.71
52693;BME280;68218;51.012;-1.648;2023-03-19T05:25:37;100497.44;;;4.29;90.75
52693;BME280;68218;51.012;-1.648;2023-03-19T05:28:03;100498.03;;;4.31;91.19
52693;BME280;68218;51.012;-1.648;2023-03-19T05:30:28;100499.72;;;4.25;91.18
52693;BME280;68218;51.012;-1.648;2023-03-19T05:32:55;100495.63;;;4.23;91.13
52693;BME280;68218;51.012;-1.648;2023-03-19T05:35:20;100499.97;;;4.17;90.81
52693;BME280;68218;51.012;-1.648;2023-03-19T05:37:46;100517.84;;;4.17;91.21
52693;BME280;68218;51.012;-1.648;2023-03-19T05:40:11;100516.81;;;4.11;91.25
52693;BME280;68218;51.012;-1.648;2023-03-19T05:42:37;100518.06;;;4.15;91.69
52693;BME280;68218;51.012;-1.648;2023-03-19T05:45:03;100526.09;;;4.08;91.72
52693;BME280;68218;51.012;-1.648;2023-03-19T05:47:28;100527.13;;;4.01;91.89
52693;BME280;68218;51.012;-1.648;2023-03-19T05:49:53;100537.00;;;4.00;91.91
52693;BME280;68218;51.012;-1.648;2023-03-19T05:52:19;100536.41;;;3.98;91.96
52693;BME280;68218;51.012;-1.648;2023-03-19T05:54:45;100533.31;;;4.01;92.23
52693;BME280;68218;51.012;-1.648;2023-03-19T05:57:13;100525.31;;;4.01;92.32
52693;BME280;68218;51.012;-1.648;2023-03-19T05:59:38;100534.34;;;4.00;91.97
52693;BME280;68218;51.012;-1.648;2023-03-19T06:02:04;100538.84;;;4.00;91.93
52693;BME280;68218;51.012;-1.648;2023-03-19T06:04:29;100548.50;;;3.94;91.77
52693;BME280;68218;51.012;-1.648;2023-03-19T06:06:55;100550.78;;;3.90;92.06
52693;BME280;68218;51.012;-1.648;2023-03-19T06:09:20;100550.38;;;3.87;92.08
52693;BME280;68218;51.012;-1.648;2023-03-19T06:11:46;100553.25;;;3.85;92.00
52693;BME280;68218;51.012;-1.648;2023-03-19T06:14:11;100566.00;;;3.83;91.99
52693;BME280;68218;51.012;-1.648;2023-03-19T06:16:36;100561.47;;;3.84;91.98
52693;BME280;68218;51.012;-1.648;2023-03-19T06:19:02;100560.25;;;3.80;91.97
52693;BME280;68218;51.012;-1.648;2023-03-19T06:21:27;100562.34;;;3.71;91.56
52693;BME280;68218;51.012;-1.648;2023-03-19T06:23:54;100568.50;;;3.65;92.10
52693;BME280;68218;51.012;-1.648;2023-03-19T06:26:20;100564.63;;;3.61;92.05
52693;BME280;68218;51.012;-1.648;2023-03-19T06:28:46;100568.94;;;3.62;92.20
52693;BME280;68218;51.012;-1.648;2023-03-19T06:31:11;100576.28;;;3.66;92.73
52693;BME280;68218;51.012;-1.648;2023-03-19T06:33:36;100583.69;;;3.71;92.73
52693;BME280;68218;51.012;-1.648;2023-03-19T06:36:01;100585.75;;;3.69;92.62
52693;BME280;68218;51.012;-1.648;2023-03-19T06:38:27;100587.38;;;3.70;92.67
52693;BME280;68218;51.012;-1.648;2023-03-19T06:40:52;100598.03;;;3.70;92.42
52693;BME280;68218;51.012;-1.648;2023-03-19T06:43:17;100601.34;;;3.72;92.76
52693;BME280;68218;51.012;-1.648;2023-03-19T06:45:43;100607.69;;;3.78;92.87
52693;BME280;68218;51.012;-1.648;2023-03-19T06:48:09;100601.28;;;3.79;92.82
52693;BME280;68218;51.012;-1.648;2023-03-19T06:50:35;100599.88;;;3.76;92.27
52693;BME280;68218;51.012;-1.648;2023-03-19T06:53:00;100607.88;;;3.83;92.64
52693;BME280;68218;51.012;-1.648;2023-03-19T06:55:26;100610.13;;;3.86;92.98
52693;BME280;68218;51.012;-1.648;2023-03-19T06:57:51;100602.50;;;3.96;92.66
52693;BME280;68218;51.012;-1.648;2023-03-19T07:00:17;100615.66;;;3.98;92.92
52693;BME280;68218;51.012;-1.648;2023-03-19T07:02:43;100620.53;;;4.07;92.41
52693;BME280;68218;51.012;-1.648;2023-03-19T07:05:08;100613.50;;;4.20;92.04
52693;BME280;68218;51.012;-1.648;2023-03-19T07:07:34;100617.16;;;4.32;92.93
52693;BME280;68218;51.012;-1.648;2023-03-19T07:09:59;100619.34;;;4.48;91.35
52693;BME280;68218;51.012;-1.648;2023-03-19T07:12:25;100624.59;;;4.68;90.69
52693;BME280;68218;51.012;-1.648;2023-03-19T07:14:52;100627.19;;;4.82;90.48
52693;BME280;68218;51.012;-1.648;2023-03-19T07:17:17;100628.91;;;5.01;88.86
52693;BME280;68218;51.012;-1.648;2023-03-19T07:19:42;100630.91;;;5.13;87.81
52693;BME280;68218;51.012;-1.648;2023-03-19T07:22:08;100625.53;;;5.38;86.50
52693;BME280;68218;51.012;-1.648;2023-03-19T07:24:33;100629.59;;;5.47;86.98
52693;BME280;68218;51.012;-1.648;2023-03-19T07:26:58;100630.13;;;5.56;85.84
52693;BME280;68218;51.012;-1.648;2023-03-19T07:29:23;100633.13;;;5.66;86.02
52693;BME280;68218;51.012;-1.648;2023-03-19T07:31:49;100638.81;;;5.76;85.08
52693;BME280;68218;51.012;-1.648;2023-03-19T07:34:14;100633.91;;;5.92;84.34
52693;BME280;68218;51.012;-1.648;2023-03-19T07:36:40;100644.75;;;6.04;83.92
52693;BME280;68218;51.012;-1.648;2023-03-19T07:39:05;100642.22;;;6.27;84.95
52693;BME280;68218;51.012;-1.648;2023-03-19T07:41:30;100645.72;;;6.28;83.51
52693;BME280;68218;51.012;-1.648;2023-03-19T07:43:56;100645.63;;;6.34;81.96
52693;BME280;68218;51.012;-1.648;2023-03-19T07:46:21;100659.69;;;6.48;82.27
52693;BME280;68218;51.012;-1.648;2023-03-19T07:48:46;100659.75;;;6.60;80.93
52693;BME280;68218;51.012;-1.648;2023-03-19T07:51:12;100654.38;;;6.79;82.17
52693;BME280;68218;51.012;-1.648;2023-03-19T07:53:37;100660.31;;;6.81;80.39
52693;BME280;68218;51.012;-1.648;2023-03-19T07:56:02;100662.41;;;6.79;79.55
52693;BME280;68218;51.012;-1.648;2023-03-19T07:58:28;100662.44;;;6.90;78.66
52693;BME280;68218;51.012;-1.648;2023-03-19T08:00:53;100665.03;;;6.97;80.07
52693;BME280;68218;51.012;-1.648;2023-03-19T08:03:18;100670.44;;;7.09;79.62
52693;BME280;68218;51.012;-1.648;2023-03-19T08:05:44;100677.44;;;7.10;78.28
52693;BME280;68218;51.012;-1.648;2023-03-19T08:08:11;100671.78;;;7.30;78.91
52693;BME280;68218;51.012;-1.648;2023-03-19T08:10:37;100680.31;;;7.39;77.82
52693;BME280;68218;51.012;-1.648;2023-03-19T08:13:02;100683.56;;;7.41;78.32
52693;BME280;68218;51.012;-1.648;2023-03-19T08:15:29;100688.34;;;7.27;75.90
52693;BME280;68218;51.012;-1.648;2023-03-19T08:18:01;100687.41;;;7.33;75.97
52693;BME280;68218;51.012;-1.648;2023-03-19T08:20:27;100689.31;;;7.56;77.83
52693;BME280;68218;51.012;-1.648;2023-03-19T08:22:53;100697.84;;;7.65;76.28
52693;BME280;68218;51.012;-1.648;2023-03-19T08:25:18;100694.22;;;7.83;76.56
52693;BME280;68218;51.012;-1.648;2023-03-19T08:27:44;100694.84;;;7.85;74.69
52693;BME280;68218;51.012;-1.648;2023-03-19T08:30:09;100697.38;;;7.92;74.22
52693;BME280;68218;51.012;-1.648;2023-03-19T08:32:35;100699.50;;;7.90;73.97
52693;BME280;68218;51.012;-1.648;2023-03-19T08:35:01;100695.53;;;8.04;74.44
52693;BME280;68218;51.012;-1.648;2023-03-19T08:37:26;100705.91;;;8.24;75.29
52693;BME280;68218;51.012;-1.648;2023-03-19T08:39:51;100703.09;;;8.19;73.08
52693;BME280;68218;51.012;-1.648;2023-03-19T08:42:20;100706.00;;;8.29;72.86
52693;BME280;68218;51.012;-1.648;2023-03-19T08:44:46;100714.69;;;8.19;71.83
52693;BME280;68218;51.012;-1.648;2023-03-19T08:47:12;100723.09;;;8.35;72.18
52693;BME280;68218;51.012;-1.648;2023-03-19T08:49:37;100719.59;;;8.46;71.79
52693;BME280;68218;51.012;-1.648;2023-03-19T08:52:02;100718.72;;;8.69;71.53
52693;BME280;68218;51.012;-1.648;2023-03-19T08:54:28;100719.75;;;8.80;71.95
52693;BME280;68218;51.012;-1.648;2023-03-19T08:56:53;100722.19;;;8.81;70.06
52693;BME280;68218;51.012;-1.648;2023-03-19T08:59:18;100731.16;;;8.87;71.68
52693;BME280;68218;51.012;-1.648;2023-03-19T09:01:44;100725.19;;;8.97;71.71
52693;BME280;68218;51.012;-1.648;2023-03-19T09:04:09;100731.72;;;9.01;69.38
52693;BME280;68218;51.012;-1.648;2023-03-19T09:06:34;100731.16;;;8.87;67.82
52693;BME280;68218;51.012;-1.648;2023-03-19T09:09:00;100737.72;;;8.91;67.91
52693;BME280;68218;51.012;-1.648;2023-03-19T09:11:25;100732.97;;;9.10;68.82
52693;BME280;68218;51.012;-1.648;2023-03-19T09:13:50;100737.53;;;9.10;67.21
52693;BME280;68218;51.012;-1.648;2023-03-19T09:16:16;100733.81;;;9.28;67.22
52693;BME280;68218;51.012;-1.648;2023-03-19T09:18:41;100738.25;;;9.34;68.82
52693;BME280;68218;51.012;-1.648;2023-03-19T09:21:06;100742.13;;;9.55;66.26
52693;BME280;68218;51.012;-1.648;2023-03-19T09:23:32;100743.56;;;9.46;63.44
52693;BME280;68218;51.012;-1.648;2023-03-19T09:25:57;100738.28;;;9.68;64.82
52693;BME280;68218;51.012;-1.648;2023-03-19T09:28:22;100746.59;;;9.83;64.06
52693;BME280;68218;51.012;-1.648;2023-03-19T09:30:48;100763.00;;;9.99;66.75
52693;BME280;68218;51.012;-1.648;2023-03-19T09:33:14;100762.38;;;9.91;66.43
52693;BME280;68218;51.012;-1.648;2023-03-19T09:35:40;100761.69;;;10.52;63.09
52693;BME280;68218;51.012;-1.648;2023-03-19T09:38:06;100762.28;;;10.37;59.91
52693;BME280;68218;51.012;-1.648;2023-03-19T09:40:38;100762.88;;;10.61;61.66
52693;BME280;68218;51.012;-1.648;2023-03-19T09:45:49;100767.38;;;11.22;59.29
52693;BME280;68218;51.012;-1.648;2023-03-19T09:48:18;100764.47;;;11.56;58.68
52693;BME280;68218;51.012;-1.648;2023-03-19T09:50:52;100764.97;;;12.12;59.27
52693;BME280;68218;51.012;-1.648;2023-03-19T09:56:01;100773.31;;;11.24;60.65
52693;BME280;68218;51.012;-1.648;2023-03-19T09:58:32;100770.34;;;10.54;60.29
52693;BME280;68218;51.012;-1.648;2023-03-19T10:00:59;100778.94;;;10.17;59.50
52693;BME280;68218;51.012;-1.648;2023-03-19T10:03:42;100782.69;;;10.33;64.60
52693;BME280;68218;51.012;-1.648;2023-03-19T10:08:57;100788.59;;;10.30;61.85
52693;BME280;68218;51.012;-1.648;2023-03-19T10:16:21;100792.66;;;9.82;58.78
52693;BME280;68218;51.012;-1.648;2023-03-19T10:18:48;100798.44;;;10.07;60.17
52693;BME280;68218;51.012;-1.648;2023-03-19T10:21:27;100795.69;;;9.85;58.82
52693;BME280;68218;51.012;-1.648;2023-03-19T10:26:23;100789.63;;;10.29;58.27
52693;BME280;68218;51.012;-1.648;2023-03-19T10:36:23;100782.72;;;11.43;59.22
52693;BME280;68218;51.012;-1.648;2023-03-19T10:38:50;100784.00;;;10.86;55.66
52693;BME280;68218;51.012;-1.648;2023-03-19T10:43:55;100793.38;;;11.28;57.71
52693;BME280;68218;51.012;-1.648;2023-03-19T10:46:22;100788.84;;;10.67;55.23
52693;BME280;68218;51.012;-1.648;2023-03-19T10:48:48;100784.78;;;10.65;56.44
52693;BME280;68218;51.012;-1.648;2023-03-19T10:51:14;100786.53;;;10.54;59.79
52693;BME280;68218;51.012;-1.648;2023-03-19T10:53:40;100790.03;;;10.21;58.52
52693;BME280;68218;51.012;-1.648;2023-03-19T10:58:54;100801.97;;;10.81;59.55
52693;BME280;68218;51.012;-1.648;2023-03-19T11:01:20;100799.28;;;10.81;57.16
52693;BME280;68218;51.012;-1.648;2023-03-19T11:04:28;100796.41;;;10.48;57.29
52693;BME280;68218;51.012;-1.648;2023-03-19T11:06:35;100799.91;;;10.88;58.60
52693;BME280;68218;51.012;-1.648;2023-03-19T11:09:02;100800.19;;;10.86;56.32
52693;BME280;68218;51.012;-1.648;2023-03-19T11:11:49;100806.75;;;10.96;60.36
52693;BME280;68218;51.012;-1.648;2023-03-19T11:14:21;100800.84;;;10.77;57.91
52693;BME280;68218;51.012;-1.648;2023-03-19T11:16:50;100799.84;;;10.83;57.76
52693;BME280;68218;51.012;-1.648;2023-03-19T11:19:20;100797.06;;;10.56;58.58
52693;BME280;68218;51.012;-1.648;2023-03-19T11:21:52;100799.94;;;10.15;59.19
52693;BME280;68218;51.012;-1.648;2023-03-19T11:24:18;100798.94;;;10.55;62.00
52693;BME280;68218;51.012;-1.648;2023-03-19T11:26:47;100794.97;;;10.41;58.69
52693;BME280;68218;51.012;-1.648;2023-03-19T11:29:17;100797.22;;;10.66;58.68
52693;BME280;68218;51.012;-1.648;2023-03-19T11:32:04;100795.50;;;10.60;58.41
52693;BME280;68218;51.012;-1.648;2023-03-19T11:34:42;100808.06;;;10.32;58.57
52693;BME280;68218;51.012;-1.648;2023-03-19T11:37:25;100808.06;;;10.71;60.19
52693;BME280;68218;51.012;-1.648;2023-03-19T11:52:14;100827.91;;;11.04;57.85
52693;BME280;68218;51.012;-1.648;2023-03-19T11:54:57;100821.25;;;10.90;57.69
52693;BME280;68218;51.012;-1.648;2023-03-19T11:57:42;100817.59;;;10.40;58.18
52693;BME280;68218;51.012;-1.648;2023-03-19T12:00:24;100819.50;;;11.00;59.15
52693;BME280;68218;51.012;-1.648;2023-03-19T12:05:31;100825.56;;;10.68;57.54
52693;BME280;68218;51.012;-1.648;2023-03-19T12:15:28;100830.56;;;11.21;59.13
52693;BME280;68218;51.012;-1.648;2023-03-19T12:20:35;100807.59;;;10.57;56.76
52693;BME280;68218;51.012;-1.648;2023-03-19T12:23:06;100813.03;;;11.01;61.42
52693;BME280;68218;51.012;-1.648;2023-03-19T12:30:56;100811.47;;;11.55;55.98
52693;BME280;68218;51.012;-1.648;2023-03-19T12:35:52;100811.34;;;11.72;56.67
52693;BME280;68218;51.012;-1.648;2023-03-19T12:43:33;100810.03;;;11.47;54.97
52693;BME280;68218;51.012;-1.648;2023-03-19T12:48:30;100816.31;;;11.53;58.89
52693;BME280;68218;51.012;-1.648;2023-03-19T12:51:01;100810.25;;;11.68;59.43
52693;BME280;68218;51.012;-1.648;2023-03-19T12:53:31;100809.19;;;11.69;57.05
52693;BME280;68218;51.012;-1.648;2023-03-19T12:56:01;100816.47;;;11.19;55.05
52693;BME280;68218;51.012;-1.648;2023-03-19T12:58:38;100805.56;;;10.86;56.09
52693;BME280;68218;51.012;-1.648;2023-03-19T13:01:08;100811.69;;;11.48;58.67
52693;BME280;68218;51.012;-1.648;2023-03-19T13:06:09;100812.50;;;11.76;55.20
52693;BME280;68218;51.012;-1.648;2023-03-19T13:08:42;100802.81;;;12.12;57.13
52693;BME280;68218;51.012;-1.648;2023-03-19T13:11:10;100796.72;;;12.27;58.18
52693;BME280;68218;51.012;-1.648;2023-03-19T13:13:57;100811.34;;;12.74;53.63
52693;BME280;68218;51.012;-1.648;2023-03-19T13:21:25;100807.69;;;13.01;50.63
52693;BME280;68218;51.012;-1.648;2023-03-19T13:24:25;100813.50;;;12.72;55.07
52693;BME280;68218;51.012;-1.648;2023-03-19T13:26:45;100812.25;;;12.47;55.41
52693;BME280;68218;51.012;-1.648;2023-03-19T13:29:24;100808.41;;;12.38;58.03
52693;BME280;68218;51.012;-1.648;2023-03-19T13:31:50;100807.63;;;12.05;54.55
52693;BME280;68218;51.012;-1.648;2023-03-19T13:36:41;100810.69;;;12.57;56.64
52693;BME280;68218;51.012;-1.648;2023-03-19T13:39:15;100807.31;;;13.71;53.57
52693;BME280;68218;51.012;-1.648;2023-03-19T13:46:51;100819.56;;;13.00;54.40
52693;BME280;68218;51.012;-1.648;2023-03-19T13:49:24;100821.69;;;12.87;55.42
52693;BME280;68218;51.012;-1.648;2023-03-19T13:51:52;100834.56;;;12.65;55.90
52693;BME280;68218;51.012;-1.648;2023-03-19T13:54:18;100829.56;;;12.89;55.18
52693;BME280;68218;51.012;-1.648;2023-03-19T13:59:31;100822.94;;;12.69;57.00
52693;BME280;68218;51.012;-1.648;2023-03-19T14:01:57;100824.25;;;12.62;54.43
52693;BME280;68218;51.012;-1.648;2023-03-19T14:04:29;100818.28;;;13.07;55.35
52693;BME280;68218;51.012;-1.648;2023-03-19T14:09:34;100829.22;;;12.75;54.19
52693;BME280;68218;51.012;-1.648;2023-03-19T14:14:51;100828.28;;;13.12;54.42
52693;BME280;68218;51.012;-1.648;2023-03-19T14:19:51;100805.19;;;14.14;51.26
52693;BME280;68218;51.012;-1.648;2023-03-19T14:22:22;100801.06;;;14.42;48.69
52693;BME280;68218;51.012;-1.648;2023-03-19T14:25:01;100803.00;;;14.41;49.51